Time;durP1;ratioP1;P1;durP2;ratioP2;P2;SDS_P1;SDS_P2;PMS_P1;PMS_P2;Temp;Humidity;BMP_temperature;BMP_pressure;BME280_temperature;BME280_humidity;BME280_pressure;Samples;Min_cycle;Max_cycle;Signal;HPM_P1;HPM_P2
2021/08/03 00:00:57;;;;;;;15.55;13.83;;;;;;;13.85;80.47;98770.20;2192452;81;20961;-82
2021/08/03 00:03:59;;;;;;;18.57;14.00;;;;;;;13.85;80.48;98777.64;2192621;81;21000;-82
2021/08/03 00:06:59;;;;;;;17.45;13.30;;;;;;;13.87;80.62;98770.67;2192473;80;20972;-82
2021/08/03 00:10:01;;;;;;;23.27;15.15;;;;;;;13.88;80.62;98777.67;2192226;81;21041;-80
2021/08/03 00:13:01;;;;;;;16.62;13.13;;;;;;;13.90;80.56;98779.84;2192360;81;20909;-81
2021/08/03 00:16:02;;;;;;;19.02;13.75;;;;;;;13.93;80.35;98777.66;2192209;81;20931;-81
2021/08/03 00:19:02;;;;;;;19.20;15.13;;;;;;;13.95;80.38;98779.84;2192494;80;20953;-81
2021/08/03 00:22:03;;;;;;;17.90;14.70;;;;;;;13.97;80.33;98773.70;2192530;81;21325;-82
2021/08/03 00:25:04;;;;;;;16.02;14.33;;;;;;;13.99;80.21;98777.20;2192474;81;20988;-81
2021/08/03 00:28:04;;;;;;;16.67;14.03;;;;;;;14.03;80.24;98778.06;2192568;80;21285;-81
2021/08/03 00:31:05;;;;;;;16.73;13.43;;;;;;;14.07;80.11;98779.80;2192386;81;21021;-81
2021/08/03 00:34:05;;;;;;;16.45;13.48;;;;;;;14.10;80.12;98779.80;2192487;81;20948;-82
2021/08/03 00:37:06;;;;;;;14.93;13.38;;;;;;;14.14;80.06;98778.03;2192315;80;20909;-81
2021/08/03 00:40:07;;;;;;;16.32;14.07;;;;;;;14.16;80.08;98775.83;2192400;81;20898;-81
2021/08/03 00:43:07;;;;;;;15.48;13.72;;;;;;;14.20;80.01;98780.63;2192281;80;20978;-80
2021/08/03 00:46:08;;;;;;;16.60;13.72;;;;;;;14.22;79.97;98778.88;2193230;80;20941;-82
2021/08/03 00:49:08;;;;;;;14.87;13.32;;;;;;;14.26;79.85;98784.55;2192684;81;20913;-80
2021/08/03 00:52:09;;;;;;;16.90;13.35;;;;;;;14.30;79.87;98784.97;2209785;80;21332;-81
2021/08/03 00:55:09;;;;;;;18.25;12.90;;;;;;;14.34;79.80;98784.08;2229873;80;20916;-80
2021/08/03 00:58:10;;;;;;;13.85;12.35;;;;;;;14.37;79.82;98778.81;2229862;80;20912;-80
2021/08/03 01:01:11;;;;;;;13.20;11.80;;;;;;;14.37;79.71;98780.13;2229710;80;20947;-80
2021/08/03 01:04:14;;;;;;;16.40;12.88;;;;;;;14.37;79.60;98791.94;2229470;80;21260;-79
2021/08/03 01:07:14;;;;;;;14.45;12.40;;;;;;;14.37;79.52;98790.63;2229726;79;20980;-78
2021/08/03 01:10:14;;;;;;;16.52;12.70;;;;;;;14.39;79.52;98792.80;2230114;80;20952;-78
2021/08/03 01:13:16;;;;;;;16.35;12.70;;;;;;;14.46;79.56;98794.56;2230352;80;20948;-79
2021/08/03 01:16:16;;;;;;;13.83;11.97;;;;;;;14.50;79.40;98793.66;2230239;80;21383;-79
2021/08/03 01:19:17;;;;;;;18.05;12.78;;;;;;;14.49;79.21;98784.03;2230331;80;20927;-79
2021/08/03 01:22:17;;;;;;;15.00;11.63;;;;;;;14.49;79.13;98786.66;2230066;80;20920;-78
2021/08/03 01:25:18;;;;;;;16.23;12.25;;;;;;;14.50;79.11;98780.53;2230191;80;20967;-78
2021/08/03 01:28:18;;;;;;;16.35;12.18;;;;;;;14.51;79.10;98776.16;2229707;80;20956;-77
2021/08/03 01:31:19;;;;;;;13.08;11.65;;;;;;;14.54;79.06;98777.01;2229757;80;20912;-77
2021/08/03 01:34:22;;;;;;;16.35;12.65;;;;;;;14.55;78.87;98772.19;2229548;80;20912;-78
2021/08/03 01:37:23;;;;;;;18.00;12.27;;;;;;;14.52;78.91;98771.33;2230066;80;21304;-77
2021/08/03 01:40:24;;;;;;;13.93;12.37;;;;;;;14.49;78.86;98772.66;2229656;80;20908;-78
2021/08/03 01:43:25;;;;;;;15.95;11.95;;;;;;;14.48;78.92;98771.79;2230103;80;21346;-78
2021/08/03 01:46:25;;;;;;;16.20;12.15;;;;;;;14.48;78.86;98780.11;2230197;80;20939;-77
2021/08/03 01:49:26;;;;;;;73.60;15.63;;;;;;;14.47;78.72;98780.55;2229556;80;20889;-77
2021/08/03 01:52:26;;;;;;;17.98;12.23;;;;;;;14.49;78.82;98788.42;2223191;79;21304;-77
2021/08/03 01:55:27;;;;;;;16.48;13.68;;;;;;;14.50;78.69;98785.78;2216584;80;21265;-79
2021/08/03 01:58:27;;;;;;;16.87;12.53;;;;;;;14.49;78.66;98785.35;2216063;80;20925;-79
2021/08/03 02:01:28;;;;;;;24.15;16.95;;;;;;;14.48;78.72;98783.61;2216219;80;20951;-79
2021/08/03 02:04:28;;;;;;;14.25;12.80;;;;;;;14.50;78.64;98784.91;2216026;80;20988;-80
2021/08/03 02:07:29;;;;;;;17.25;12.53;;;;;;;14.54;78.72;98787.95;2216397;80;20900;-79
2021/08/03 02:10:29;;;;;;;23.20;12.23;;;;;;;14.58;78.57;98782.68;2216630;80;20881;-78
2021/08/03 02:13:30;;;;;;;17.90;12.28;;;;;;;14.63;78.32;98785.28;2216428;80;20889;-79
2021/08/03 02:16:30;;;;;;;16.05;12.10;;;;;;;14.63;78.32;98785.28;2216521;80;21268;-78
2021/08/03 02:19:31;;;;;;;16.00;13.62;;;;;;;14.62;78.25;98784.84;2216399;80;20947;-78
2021/08/03 02:22:31;;;;;;;19.92;12.53;;;;;;;14.63;78.33;98781.34;2216451;80;20932;-77
2021/08/03 02:25:32;;;;;;;21.27;12.07;;;;;;;14.63;78.20;98784.84;2216600;80;20972;-79
2021/08/03 02:28:32;;;;;;;13.90;12.55;;;;;;;14.64;78.17;98785.72;2216626;80;20876;-80
2021/08/03 02:31:33;;;;;;;18.27;12.93;;;;;;;14.66;78.14;98785.27;2216393;80;20919;-79
2021/08/03 02:34:33;;;;;;;15.98;12.35;;;;;;;14.69;78.10;98785.69;2216256;80;20964;-79
2021/08/03 02:37:34;;;;;;;17.90;12.75;;;;;;;14.70;78.00;98786.12;2216195;80;21257;-79
2021/08/03 02:40:34;;;;;;;21.07;13.13;;;;;;;14.70;77.98;98787.44;2216461;80;21249;-79
2021/08/03 02:43:35;;;;;;;16.42;12.85;;;;;;;14.68;78.01;98797.95;2216214;80;20916;-79
2021/08/03 02:49:49;;;;;;;41.02;13.05;;;;;;;14.69;78.03;98796.20;2194275;80;20959;-81
2021/08/03 02:52:49;;;;;;;14.70;11.93;;;;;;;14.68;78.01;98797.08;2203162;79;21013;-79
2021/08/03 02:55:50;;;;;;;19.23;11.88;;;;;;;14.64;77.97;98798.84;2192227;81;20929;-79
2021/08/03 02:58:53;;;;;;;13.80;11.95;;;;;;;14.61;78.03;98792.30;2191896;81;20960;-79
2021/08/03 03:01:54;;;;;;;16.32;12.18;;;;;;;14.56;78.09;98796.27;2192196;81;21041;-79
2021/08/03 03:04:54;;;;;;;14.50;11.55;;;;;;;14.55;78.17;98807.65;2192062;81;20980;-79
2021/08/03 03:07:55;;;;;;;15.40;12.15;;;;;;;14.54;78.17;98801.96;2192138;80;20929;-78
2021/08/03 03:10:55;;;;;;;16.37;12.15;;;;;;;14.57;78.11;98805.02;2192183;81;20916;-79
2021/08/03 03:13:56;;;;;;;16.02;13.32;;;;;;;14.59;78.20;98809.38;2192205;80;20940;-78
2021/08/03 03:16:56;;;;;;;24.92;14.55;;;;;;;14.63;78.11;98816.37;2192247;80;20954;-80
2021/08/03 03:19:57;;;;;;;18.23;12.60;;;;;;;14.66;78.05;98816.35;2191914;81;21345;-79
2021/08/03 03:22:57;;;;;;;14.20;12.53;;;;;;;14.69;77.97;98816.77;2192291;81;20937;-80
2021/08/03 03:25:58;;;;;;;16.93;12.70;;;;;;;14.72;78.01;98813.26;2192326;80;20973;-79
2021/08/03 03:28:58;;;;;;;21.25;12.73;;;;;;;14.74;77.99;98818.06;2192193;80;20945;-79
2021/08/03 03:31:59;;;;;;;20.00;13.28;;;;;;;14.88;77.69;98827.65;2192190;80;20971;-79
2021/08/03 03:34:59;;;;;;;18.70;12.88;;;;;;;14.88;77.69;98827.65;2192256;81;21364;-78
2021/08/03 03:38:00;;;;;;;15.93;12.03;;;;;;;14.90;77.73;98832.90;2192552;81;20937;-78
2021/08/03 03:41:00;;;;;;;15.78;12.07;;;;;;;14.95;77.72;98833.75;2192338;80;20922;-79
2021/08/03 03:44:01;;;;;;;19.50;12.55;;;;;;;15.01;77.57;98828.89;2192243;80;20874;-78
2021/08/03 03:47:01;;;;;;;19.90;12.30;;;;;;;15.07;77.47;98836.30;2192178;80;20960;-78
2021/08/03 03:50:02;;;;;;;13.78;12.25;;;;;;;15.12;77.32;98838.45;2192414;81;21309;-78
2021/08/03 03:53:03;;;;;;;16.57;12.85;;;;;;;15.15;77.29;98841.06;2205204;80;21355;-80
2021/08/03 03:59:06;;;;;;;17.45;12.53;;;;;;;15.21;77.07;98848.91;2193687;80;20908;-79
2021/08/03 04:02:06;;;;;;;17.95;12.15;;;;;;;15.24;76.91;98848.89;2215716;80;21351;-78
2021/08/03 04:05:07;;;;;;;14.90;11.30;;;;;;;15.24;76.80;98851.96;2216038;80;21461;-78
2021/08/03 04:08:08;;;;;;;17.82;11.57;;;;;;;15.25;76.91;98851.95;2215099;80;21360;-78
2021/08/03 04:11:13;;;;;;;17.35;11.50;;;;;;;15.30;76.92;98851.92;2215399;80;20952;-79
2021/08/03 04:14:10;;;;;;;14.40;10.32;;;;;;;15.37;76.86;98851.44;2168686;82;20944;-79
2021/08/03 04:17:11;;;;;;;12.93;9.95;;;;;;;15.43;76.79;98852.27;2155947;83;20941;-80
2021/08/03 04:20:11;;;;;;;17.62;11.12;;;;;;;15.46;76.71;98845.66;2156275;83;21265;-79
2021/08/03 04:23:12;;;;;;;52.88;12.63;;;;;;;15.52;76.64;98854.82;2155949;83;20956;-78
2021/08/03 04:26:12;;;;;;;13.80;9.83;;;;;;;15.62;76.51;98846.92;2156145;82;20941;-79
2021/08/03 04:29:13;;;;;;;16.75;11.25;;;;;;;15.70;76.14;98843.34;2156263;83;20920;-79
2021/08/03 04:32:16;;;;;;;49.25;12.05;;;;;;;15.77;75.97;98848.98;2156119;83;20965;-78
2021/08/03 04:35:16;;;;;;;16.42;10.00;;;;;;;15.83;75.78;98844.97;2156029;83;21032;-79
2021/08/03 04:38:17;;;;;;;14.55;10.32;;;;;;;15.93;75.75;98844.44;2155886;82;20964;-79
2021/08/03 04:41:17;;;;;;;16.55;9.95;;;;;;;15.97;75.42;98843.52;2155797;83;20964;-78
2021/08/03 04:44:18;;;;;;;13.95;9.23;;;;;;;16.08;75.31;98843.42;2155911;83;20897;-79
2021/08/03 04:47:18;;;;;;;13.35;9.53;;;;;;;16.22;75.35;98836.24;2155895;83;20962;-79
2021/08/03 04:50:19;;;;;;;20.08;10.10;;;;;;;16.30;75.00;98836.16;2156627;82;20933;-79
2021/08/03 04:53:20;;;;;;;14.13;9.38;;;;;;;16.36;74.83;98840.91;2156189;82;20965;-80
2021/08/03 04:56:20;;;;;;;13.22;9.45;;;;;;;16.34;74.52;98850.59;2155584;83;20913;-79
2021/08/03 04:59:21;;;;;;;26.07;9.93;;;;;;;16.30;74.40;98855.91;2156076;82;20940;-78
2021/08/03 05:02:22;;;;;;;16.25;9.50;;;;;;;16.30;74.43;98855.47;2216643;80;21360;-79
2021/08/03 05:05:24;;;;;;;20.40;10.00;;;;;;;16.54;74.51;98855.22;2215792;80;21011;-79
2021/08/03 05:08:24;;;;;;;18.57;9.35;;;;;;;16.91;73.88;98858.73;2216120;80;20980;-79
2021/08/03 05:11:25;;;;;;;14.18;9.15;;;;;;;17.22;73.04;98866.22;2215744;80;20900;-80
2021/08/03 05:14:25;;;;;;;15.08;9.03;;;;;;;17.29;72.51;98867.43;2215949;80;21290;-79
2021/08/03 05:17:26;;;;;;;11.97;9.05;;;;;;;17.27;72.00;98866.58;2215560;80;21339;-80
2021/08/03 05:20:26;;;;;;;17.27;9.13;;;;;;;17.20;71.76;98872.84;2215264;80;20920;-79
2021/08/03 05:23:27;;;;;;;9.95;8.88;;;;;;;17.14;71.98;98873.80;2215742;80;20924;-79
2021/08/03 05:26:27;;;;;;;11.97;9.00;;;;;;;17.05;72.22;98883.16;2215565;80;20955;-80
2021/08/03 05:29:28;;;;;;;16.32;10.00;;;;;;;17.05;72.48;98875.69;2215475;80;20968;-80
2021/08/03 05:32:28;;;;;;;14.78;9.35;;;;;;;17.07;72.46;98878.73;2215156;80;20921;-79
2021/08/03 05:35:29;;;;;;;11.15;8.93;;;;;;;17.12;72.47;98875.59;2215609;80;21257;-80
2021/08/03 05:38:29;;;;;;;13.70;8.70;;;;;;;17.27;72.36;98879.77;2215377;80;20897;-79
2021/08/03 05:41:30;;;;;;;11.35;9.80;;;;;;;17.47;72.43;98875.10;2215848;80;20952;-80
2021/08/03 05:44:31;;;;;;;28.32;10.75;;;;;;;17.80;71.65;98871.53;2215776;80;20956;-81
2021/08/03 05:47:31;;;;;;;12.07;8.70;;;;;;;17.96;70.95;98873.01;2216029;80;21284;-80
2021/08/03 05:50:32;;;;;;;15.38;10.23;;;;;;;18.25;70.39;98872.97;2216898;80;21323;-78
2021/08/03 05:53:32;;;;;;;10.40;8.28;;;;;;;18.40;69.86;98872.23;2205432;79;21341;-79
2021/08/03 05:56:33;;;;;;;12.82;8.13;;;;;;;18.62;69.66;98864.78;2191796;81;20976;-79
2021/08/03 05:59:33;;;;;;;16.00;7.80;;;;;;;18.90;69.22;98866.84;2192696;81;20897;-80
2021/08/03 06:02:34;;;;;;;12.10;8.23;;;;;;;19.15;68.77;98866.77;2192274;81;20913;-80
2021/08/03 06:05:34;;;;;;;11.45;7.67;;;;;;;19.20;67.91;98869.31;2192282;81;20996;-80
2021/08/03 06:08:35;;;;;;;14.10;8.28;;;;;;;19.45;67.87;98870.94;2192717;81;20912;-80
2021/08/03 06:11:35;;;;;;;32.78;8.83;;;;;;;19.63;66.57;98863.46;2191687;81;20933;-79
2021/08/03 06:14:36;;;;;;;9.28;7.12;;;;;;;19.84;66.01;98865.16;2191737;81;20941;-79
2021/08/03 06:17:36;;;;;;;8.50;6.97;;;;;;;19.94;64.61;98863.59;2192404;81;20901;-81
2021/08/03 06:20:37;;;;;;;11.90;6.60;;;;;;;19.95;63.53;98867.98;2192588;81;21305;-80
2021/08/03 06:23:37;;;;;;;7.97;6.58;;;;;;;19.88;63.26;98870.80;2192312;81;21328;-82
2021/08/03 06:26:43;;;;;;;8.55;6.60;;;;;;;19.84;63.24;98871.33;2192819;81;20971;-80
2021/08/03 06:29:41;;;;;;;9.25;6.58;;;;;;;19.98;63.82;98867.91;2192960;81;20925;-80
2021/08/03 06:32:42;;;;;;;8.05;6.20;;;;;;;20.09;62.83;98872.93;2192452;81;21265;-79
2021/08/03 06:35:42;;;;;;;9.08;6.58;;;;;;;20.24;63.07;98871.66;2192113;81;20977;-79
2021/08/03 06:38:43;;;;;;;8.23;6.12;;;;;;;20.45;62.66;98874.22;2192834;81;20905;-79
2021/08/03 06:41:46;;;;;;;7.25;6.05;;;;;;;20.70;62.08;98873.94;2192817;81;20997;-79
2021/08/03 06:44:46;;;;;;;13.95;6.50;;;;;;;20.98;61.29;98874.04;2192789;81;20968;-79
2021/08/03 06:47:47;;;;;;;5.95;5.17;;;;;;;21.18;60.68;98875.64;2191694;81;21325;-80
2021/08/03 06:50:47;;;;;;;4.92;4.45;;;;;;;21.43;59.95;98871.80;2190786;81;20937;-80
2021/08/03 06:53:48;;;;;;;9.20;5.00;;;;;;;21.74;58.84;98869.52;2209060;80;21018;-79
2021/08/03 06:56:49;;;;;;;8.98;4.12;;;;;;;21.96;58.51;98870.53;2230151;80;20984;-79
2021/08/03 06:59:49;;;;;;;7.60;4.40;;;;;;;22.28;57.86;98871.25;2229629;80;20920;-78
2021/08/03 07:02:50;;;;;;;5.53;4.55;;;;;;;22.57;57.16;98872.45;2230000;80;20927;-80
2021/08/03 07:05:51;;;;;;;6.37;4.67;;;;;;;22.68;56.28;98872.92;2229953;80;20916;-79
2021/08/03 07:08:52;;;;;;;5.60;4.28;;;;;;;22.86;56.02;98870.94;2230494;80;21068;-81
2021/08/03 07:11:55;;;;;;;9.93;3.83;;;;;;;22.94;54.52;98871.98;2230587;80;20892;-78
2021/08/03 07:14:55;;;;;;;7.42;3.77;;;;;;;22.99;53.76;98873.14;2231037;80;20931;-80
2021/08/03 07:17:56;;;;;;;7.05;3.92;;;;;;;23.07;53.35;98871.05;2231034;80;20931;-80
2021/08/03 07:20:57;;;;;;;3.75;3.22;;;;;;;23.23;53.87;98868.20;2229365;80;21607;-79
2021/08/03 07:23:57;;;;;;;6.00;3.17;;;;;;;23.44;51.84;98860.73;2229656;80;20928;-79
2021/08/03 07:26:58;;;;;;;7.08;3.90;;;;;;;23.58;50.53;98855.34;2229079;80;21415;-80
2021/08/03 07:29:58;;;;;;;5.47;3.50;;;;;;;23.53;51.03;98859.50;2230212;80;20924;-80
2021/08/03 07:32:59;;;;;;;4.30;2.85;;;;;;;23.67;50.19;98858.97;2230387;80;20897;-80
2021/08/03 07:35:59;;;;;;;3.10;2.80;;;;;;;23.81;49.18;98857.47;2230761;80;20940;-80
2021/08/03 07:39:04;;;;;;;3.58;2.70;;;;;;;23.95;49.82;98862.22;2230940;80;20923;-80
2021/08/03 07:42:02;;;;;;;3.52;2.83;;;;;;;24.04;48.32;98859.16;2231020;79;20989;-80
2021/08/03 07:45:03;;;;;;;29.63;6.05;;;;;;;23.80;47.75;98858.86;2229920;80;20976;-80
2021/08/03 07:48:04;;;;;;;132.35;13.60;;;;;;;23.89;48.58;98856.28;2230312;80;20935;-79
2021/08/03 07:51:04;;;;;;;9.78;3.40;;;;;;;24.09;47.55;98856.30;2229439;80;20924;-79
2021/08/03 07:54:05;;;;;;;3.87;3.15;;;;;;;24.25;47.84;98851.17;2229891;80;20968;-79
2021/08/03 07:57:05;;;;;;;4.95;3.02;;;;;;;24.43;46.43;98855.30;2229379;80;20923;-78
2021/08/03 08:00:06;;;;;;;3.37;2.62;;;;;;;24.52;46.72;98855.36;2229776;80;20951;-80
2021/08/03 08:03:06;;;;;;;3.02;2.70;;;;;;;24.63;45.20;98858.42;2229830;80;20889;-80
2021/08/03 08:06:07;;;;;;;5.42;3.25;;;;;;;24.72;45.87;98858.00;2229938;80;21307;-80
2021/08/03 08:09:08;;;;;;;5.75;2.95;;;;;;;24.75;45.04;98857.00;2230195;80;20892;-79
2021/08/03 08:12:09;;;;;;;4.20;2.30;;;;;;;24.88;43.63;98855.50;2228995;80;20959;-79
2021/08/03 08:15:09;;;;;;;2.42;2.20;;;;;;;25.18;42.41;98866.63;2229489;80;20924;-79
2021/08/03 08:18:10;;;;;;;3.10;2.30;;;;;;;25.33;43.46;98860.55;2230110;80;21007;-81
2021/08/03 08:21:10;;;;;;;4.12;2.30;;;;;;;25.20;41.49;98860.74;2229962;80;20968;-79
2021/08/03 08:24:11;;;;;;;3.12;2.17;;;;;;;25.08;41.61;98853.27;2229898;80;21134;-80
2021/08/03 08:27:11;;;;;;;4.00;2.27;;;;;;;25.39;42.66;98848.23;2230186;80;20932;-79
2021/08/03 08:30:12;;;;;;;3.80;2.27;;;;;;;25.53;42.72;98856.06;2228777;80;20968;-79
2021/08/03 08:33:12;;;;;;;4.50;2.72;;;;;;;25.80;42.98;98858.74;2228969;80;20892;-79
2021/08/03 08:36:13;;;;;;;2.62;2.12;;;;;;;26.09;41.75;98855.10;2229094;80;21395;-80
2021/08/03 08:39:13;;;;;;;4.42;2.35;;;;;;;26.42;41.36;98852.52;2229105;80;20927;-80
2021/08/03 08:42:14;;;;;;;3.95;2.60;;;;;;;26.68;40.50;98850.67;2229496;80;20960;-80
2021/08/03 08:45:15;;;;;;;3.62;2.65;;;;;;;26.88;40.13;98848.30;2229655;80;20928;-81
2021/08/03 08:48:15;;;;;;;2.95;2.35;;;;;;;27.07;39.49;98849.05;2229777;80;21113;-81
2021/08/03 08:51:16;;;;;;;4.55;2.42;;;;;;;27.09;39.21;98848.48;2229823;80;20971;-80
2021/08/03 08:54:16;;;;;;;4.80;2.47;;;;;;;27.30;39.21;98849.11;2214082;79;21012;-79
2021/08/03 08:57:17;;;;;;;2.22;2.02;;;;;;;27.69;37.95;98846.48;2191872;81;20945;-80
2021/08/03 09:00:19;;;;;;;6.33;2.02;;;;;;;27.81;38.29;98848.00;2192146;81;20977;-80
2021/08/03 09:03:19;;;;;;;3.37;2.40;;;;;;;28.13;38.09;98840.73;2192218;81;20949;-80
2021/08/03 09:06:20;;;;;;;4.00;2.15;;;;;;;28.34;37.16;98845.33;2191163;81;20988;-79
2021/08/03 09:09:21;;;;;;;6.03;2.22;;;;;;;28.43;37.16;98847.45;2190635;81;20941;-80
2021/08/03 09:12:21;;;;;;;2.90;2.10;;;;;;;28.51;36.96;98852.35;2191518;81;20925;-79
2021/08/03 09:15:21;;;;;;;5.53;2.30;;;;;;;28.05;36.50;98851.55;2192105;81;21262;-80
2021/08/03 09:18:22;;;;;;;3.05;1.87;;;;;;;27.69;37.33;98848.69;2191659;81;20890;-80
2021/08/03 09:21:23;;;;;;;2.55;1.90;;;;;;;27.79;36.27;98850.39;2191163;81;20925;-80
2021/08/03 09:24:23;;;;;;;3.42;2.22;;;;;;;27.91;36.70;98853.22;2191564;81;20961;-80
2021/08/03 11:06:06;;;;;;;2.98;1.77;;;;;;;27.62;34.14;98806.22;2218323;78;21174;-79
2021/08/03 11:09:07;;;;;;;2.25;2.05;;;;;;;27.47;34.54;98802.58;2218402;80;21020;-78
2021/08/03 11:12:07;;;;;;;6.90;2.20;;;;;;;27.77;33.22;98796.84;2216333;80;20897;-79
2021/08/03 11:15:08;;;;;;;1.80;1.70;;;;;;;27.79;34.10;98796.75;2216006;80;20915;-79
2021/08/03 11:18:10;;;;;;;3.52;1.62;;;;;;;27.95;34.01;98792.20;2215836;80;21059;-79
2021/08/03 11:21:10;;;;;;;1.80;1.70;;;;;;;28.28;33.09;98793.36;2216625;80;21315;-80
2021/08/03 11:24:14;;;;;;;2.02;1.82;;;;;;;28.28;32.66;98792.50;2216994;80;20952;-80
2021/08/03 11:27:15;;;;;;;1.75;1.45;;;;;;;28.29;31.83;98791.06;2216202;80;21019;-78
2021/08/03 11:30:15;;;;;;;5.25;1.80;;;;;;;28.21;31.58;98786.12;2216382;80;20912;-79
2021/08/03 11:33:16;;;;;;;3.20;1.62;;;;;;;28.18;31.88;98785.45;2215674;80;20925;-78
2021/08/03 11:36:16;;;;;;;9.98;1.70;;;;;;;28.39;32.25;98788.19;2214993;80;21482;-79
2021/08/03 11:39:17;;;;;;;1.75;1.65;;;;;;;28.53;31.94;98777.46;2214948;80;21754;-79
2021/08/03 11:42:17;;;;;;;3.65;1.87;;;;;;;28.52;32.06;98774.39;2214816;80;20940;-77
2021/08/03 11:45:18;;;;;;;3.72;2.17;;;;;;;28.44;32.38;98771.80;2215666;80;20956;-79
2021/08/03 11:48:18;;;;;;;1.80;1.70;;;;;;;28.50;32.23;98779.47;2215829;80;20912;-80
2021/08/03 11:51:19;;;;;;;1.90;1.67;;;;;;;28.49;31.94;98769.21;2215796;80;20925;-79
2021/08/03 11:54:19;;;;;;;1.87;1.77;;;;;;;28.48;32.06;98768.83;2215762;80;20959;-80
2021/08/03 11:57:23;;;;;;;1.98;1.75;;;;;;;28.47;32.01;98767.11;2216143;80;20952;-80
2021/08/03 12:00:22;;;;;;;3.80;1.98;;;;;;;28.45;31.75;98768.16;2215580;79;20916;-80
2021/08/03 12:03:22;;;;;;;3.92;2.60;;;;;;;28.35;32.81;98763.84;2214999;80;21284;-79
2021/08/03 12:06:23;;;;;;;2.05;1.95;;;;;;;28.18;32.90;98768.00;2223701;79;21012;-80
2021/08/03 12:09:24;;;;;;;2.10;2.00;;;;;;;27.94;33.15;98754.26;2235714;80;20961;-79
2021/08/03 12:12:24;;;;;;;2.98;2.65;;;;;;;27.97;32.22;98746.03;2235884;80;20952;-79
2021/08/03 12:15:25;;;;;;;2.35;1.90;;;;;;;28.01;33.10;98753.41;2235659;80;21301;-79
2021/08/03 12:18:25;;;;;;;2.47;2.27;;;;;;;28.04;33.03;98750.55;2236884;80;21265;-78
2021/08/03 12:21:26;;;;;;;3.15;2.35;;;;;;;27.91;33.55;98749.08;2237057;80;21194;-77
2021/08/03 12:24:26;;;;;;;5.15;2.30;;;;;;;28.13;33.95;98746.81;2237205;79;20918;-79
2021/08/03 12:27:27;;;;;;;10.55;2.77;;;;;;;28.58;33.20;98742.75;2236995;80;21329;-77
2021/08/03 12:30:28;;;;;;;2.17;1.87;;;;;;;28.59;32.43;98745.81;2236240;80;20928;-80
2021/08/03 12:33:28;;;;;;;1.87;1.55;;;;;;;28.61;32.53;98743.89;2236553;80;20960;-79
2021/08/03 12:36:29;;;;;;;2.62;2.05;;;;;;;28.62;32.55;98738.94;2236509;80;21015;-79
2021/08/03 12:39:36;;;;;;;2.20;2.05;;;;;;;28.71;33.32;98739.70;2236577;80;21275;-79
2021/08/03 12:42:34;;;;;;;8.55;2.08;;;;;;;28.43;31.97;98737.86;2235456;79;21324;-79
2021/08/03 12:45:35;;;;;;;2.22;2.08;;;;;;;27.88;32.89;98731.34;2169880;81;21061;-79
2021/08/03 12:48:37;;;;;;;2.37;2.05;;;;;;;27.68;32.98;98731.65;2169746;81;21011;-80
2021/08/03 12:51:38;;;;;;;6.03;2.23;;;;;;;27.49;34.06;98729.64;2170008;81;21351;-80
2021/08/03 12:54:38;;;;;;;2.08;1.87;;;;;;;27.12;34.84;98739.81;2170407;81;21588;-80
2021/08/03 12:57:39;;;;;;;5.40;1.92;;;;;;;26.35;36.06;98735.58;2170181;81;21229;-78
2021/08/03 13:00:39;;;;;;;8.30;2.50;;;;;;;25.80;37.30;98734.89;2170138;81;21121;-79
2021/08/03 13:03:40;;;;;;;2.70;1.85;;;;;;;25.48;38.58;98737.84;2169387;81;20935;-80
2021/08/03 13:06:40;;;;;;;5.92;2.15;;;;;;;25.38;38.91;98743.64;2168569;81;21010;-79
2021/08/03 13:09:41;;;;;;;3.42;1.90;;;;;;;25.64;38.81;98740.98;2154549;83;20928;-78
2021/08/03 13:12:41;;;;;;;2.33;2.00;;;;;;;25.83;38.79;98731.58;2155166;83;20952;-78
2021/08/03 13:15:42;;;;;;;2.62;1.77;;;;;;;26.06;38.16;98722.86;2155095;82;21329;-78
2021/08/03 13:18:44;;;;;;;2.35;2.05;;;;;;;26.15;37.22;98711.67;2154562;83;21361;-78
2021/08/03 13:21:44;;;;;;;2.40;2.30;;;;;;;26.20;36.59;98717.64;2155443;83;20941;-79
2021/08/03 13:24:44;;;;;;;2.20;1.90;;;;;;;26.33;36.98;98712.91;2155846;83;20948;-80
2021/08/03 13:27:45;;;;;;;2.20;2.00;;;;;;;26.41;37.23;98704.95;2155760;83;20988;-78
2021/08/03 13:30:45;;;;;;;2.27;2.08;;;;;;;26.40;37.90;98716.12;2154683;83;20977;-78
2021/08/03 13:33:46;;;;;;;2.25;2.10;;;;;;;26.03;38.15;98726.56;2155404;83;20945;-78
2021/08/03 13:36:46;;;;;;;3.62;2.20;;;;;;;25.92;38.25;98705.70;2155259;83;21190;-79
2021/08/03 13:39:47;;;;;;;2.37;2.05;;;;;;;25.94;38.71;98717.18;2155337;83;20925;-78
2021/08/03 13:42:47;;;;;;;4.62;2.67;;;;;;;25.79;39.19;98709.96;2155452;83;21018;-79
2021/08/03 13:45:48;;;;;;;2.52;2.33;;;;;;;25.42;39.92;98708.75;2156541;83;21084;-79
2021/08/03 13:48:51;;;;;;;4.42;2.45;;;;;;;25.19;40.24;98699.22;2156217;83;21345;-79
2021/08/03 13:51:51;;;;;;;4.87;2.62;;;;;;;24.82;41.01;98705.42;2156470;82;20957;-82
2021/08/03 13:54:54;;;;;;;3.95;2.22;;;;;;;24.63;41.82;98706.30;2156449;83;20914;-83
2021/08/03 13:57:54;;;;;;;2.47;2.30;;;;;;;24.50;42.28;98708.28;2156645;82;20977;-81
2021/08/03 14:00:57;;;;;;;2.55;2.00;;;;;;;24.23;42.90;98711.69;2156262;82;20924;-81
2021/08/03 14:03:57;;;;;;;8.73;2.80;;;;;;;24.10;42.91;98710.91;2156478;83;21360;-80
2021/08/03 14:06:58;;;;;;;5.28;2.17;;;;;;;24.05;43.34;98700.92;2156670;82;21696;-83
2021/08/03 14:09:59;;;;;;;2.27;2.08;;;;;;;24.28;45.54;98698.61;2156313;83;20925;-83
2021/08/03 14:12:59;;;;;;;3.40;2.65;;;;;;;24.22;45.76;98697.49;2156876;83;21333;-82
2021/08/03 14:16:00;;;;;;;2.85;2.30;;;;;;;23.87;46.96;98703.55;2157171;83;20937;-83
2021/08/03 14:19:01;;;;;;;2.92;2.50;;;;;;;23.45;46.04;98693.31;2157568;83;20982;-85
2021/08/03 14:22:01;;;;;;;3.85;2.70;;;;;;;23.22;48.00;98690.72;2157000;82;20969;-82
2021/08/03 14:25:02;;;;;;;3.85;2.50;;;;;;;23.18;48.52;98690.45;2157225;83;21324;-83
2021/08/03 14:28:05;;;;;;;5.58;2.58;;;;;;;23.12;47.46;98680.92;2156835;83;21340;-83
2021/08/03 14:31:06;;;;;;;6.67;2.77;;;;;;;23.21;47.14;98678.34;2156759;83;21385;-82
2021/08/03 14:34:06;;;;;;;5.28;2.95;;;;;;;23.40;46.88;98670.44;2157004;83;21345;-82
2021/08/03 14:37:07;;;;;;;3.22;2.95;;;;;;;23.64;46.27;98676.10;2156634;83;20964;-83
2021/08/03 14:40:07;;;;;;;5.12;3.30;;;;;;;23.89;45.68;98677.22;2156004;83;20917;-83
2021/08/03 14:43:07;;;;;;;2.80;2.60;;;;;;;24.02;45.04;98678.86;2156519;83;20961;-82
2021/08/03 14:46:08;;;;;;;4.00;3.02;;;;;;;24.01;44.55;98676.67;2156445;83;20937;-82
2021/08/03 14:49:12;;;;;;;3.25;2.80;;;;;;;23.95;45.60;98674.74;2156412;82;20948;-83
2021/08/03 14:52:11;;;;;;;3.22;2.70;;;;;;;23.95;45.50;98677.41;2156098;82;20941;-83
2021/08/03 14:55:11;;;;;;;2.50;2.30;;;;;;;23.93;45.60;98668.15;2156279;83;20944;-80
2021/08/03 14:58:12;;;;;;;2.65;2.45;;;;;;;23.91;45.12;98667.35;2155703;83;20943;-81
2021/08/03 15:01:12;;;;;;;3.08;2.37;;;;;;;24.07;45.09;98671.05;2156562;83;20951;-82
2021/08/03 15:04:13;;;;;;;8.53;5.10;;;;;;;24.43;45.40;98673.02;2155850;83;21300;-83
2021/08/03 15:07:13;;;;;;;4.42;3.05;;;;;;;24.68;47.72;98661.58;2159433;82;21385;-81
2021/08/03 15:10:14;;;;;;;2.77;2.58;;;;;;;24.95;46.54;98656.70;2163217;82;20924;-82
2021/08/03 15:13:14;;;;;;;5.17;2.87;;;;;;;25.16;45.68;98660.64;2164483;82;21012;-84
2021/08/03 15:16:16;;;;;;;2.62;2.42;;;;;;;25.30;45.45;98662.14;2164414;82;21296;-82
2021/08/03 15:19:21;;;;;;;2.90;2.55;;;;;;;25.45;44.09;98664.50;2163542;82;20972;-81
2021/08/03 15:22:21;;;;;;;5.65;2.60;;;;;;;25.47;44.23;98657.27;2163975;82;20988;-82
2021/08/03 15:25:22;;;;;;;3.60;2.60;;;;;;;25.60;43.98;98661.91;2163605;82;20944;-83
2021/08/03 15:28:22;;;;;;;2.62;2.42;;;;;;;25.59;41.76;98657.98;2163383;82;20960;-83
2021/08/03 15:31:23;;;;;;;3.08;2.30;;;;;;;25.42;41.61;98651.30;2163974;82;21237;-84
2021/08/03 15:37:25;;;;;;;2.45;2.25;;;;;;;25.13;42.65;98644.27;2134706;82;21003;-83
2021/08/03 15:40:26;;;;;;;3.58;2.45;;;;;;;25.02;41.27;98639.47;2163460;82;21257;-83
2021/08/03 15:43:26;;;;;;;6.97;2.25;;;;;;;24.94;41.83;98639.41;2163354;82;21269;-82
2021/08/03 15:46:27;;;;;;;2.33;2.20;;;;;;;24.80;42.12;98637.42;2163415;82;20909;-82
2021/08/03 15:49:28;;;;;;;6.72;3.17;;;;;;;24.70;41.90;98641.02;2163326;82;20910;-81